createdAt,value
2022-11-29T00:01:29.741Z,15.10
2022-11-29T00:03:58.113Z,13.90
2022-11-29T00:06:27.586Z,12.80
2022-11-29T00:08:55.869Z,13.73
2022-11-29T00:11:44.168Z,12.63
2022-11-29T00:14:12.844Z,12.30
2022-11-29T00:16:43.657Z,10.37
2022-11-29T00:19:12.543Z,9.63
2022-11-29T00:21:39.979Z,9.97
2022-11-29T00:24:07.601Z,8.23
2022-11-29T00:26:37.104Z,6.93
2022-11-29T00:29:04.864Z,6.40
2022-11-29T00:31:32.957Z,6.27
2022-11-29T00:34:01.312Z,6.20
2022-11-29T00:36:29.209Z,5.13
2022-11-29T00:38:56.569Z,5.87
2022-11-29T00:41:24.096Z,4.63
2022-11-29T00:43:51.380Z,4.53
2022-11-29T00:46:18.956Z,3.67
2022-11-29T00:48:46.568Z,3.43
2022-11-29T00:51:14.123Z,3.17
2022-11-29T00:53:41.358Z,2.73
2022-11-29T00:56:08.826Z,2.60
2022-11-29T00:58:37.307Z,2.57
2022-11-29T01:01:05.379Z,2.30
2022-11-29T01:03:33.043Z,1.80
2022-11-29T01:06:05.169Z,4.60
2022-11-29T01:08:32.841Z,2.10
2022-11-29T01:11:12.473Z,2.40
2022-11-29T01:13:40.271Z,1.90
2022-11-29T01:16:08.021Z,2.57
2022-11-29T01:18:35.623Z,2.60
2022-11-29T01:21:04.953Z,2.23
2022-11-29T01:23:32.631Z,2.17
2022-11-29T01:26:00.999Z,2.20
2022-11-29T01:28:28.890Z,2.50
2022-11-29T01:30:56.541Z,3.07
2022-11-29T01:33:24.642Z,2.50
2022-11-29T01:35:53.275Z,3.30
2022-11-29T01:38:20.695Z,2.70
2022-11-29T01:40:57.635Z,2.33
2022-11-29T01:43:26.153Z,2.70
2022-11-29T01:45:53.601Z,2.40
2022-11-29T01:48:23.590Z,2.67
2022-11-29T01:50:51.262Z,2.50
2022-11-29T01:53:18.592Z,2.80
2022-11-29T01:55:48.671Z,2.93
2022-11-29T01:58:16.392Z,2.90
2022-11-29T02:00:43.718Z,3.17
2022-11-29T02:03:12.581Z,3.60
2022-11-29T02:05:41.712Z,3.70
2022-11-29T02:08:11.318Z,3.07
2022-11-29T02:10:47.216Z,3.20
2022-11-29T02:13:29.932Z,3.20
2022-11-29T02:16:13.059Z,2.87
2022-11-29T02:18:40.620Z,2.87
2022-11-29T02:21:17.153Z,3.90
2022-11-29T02:24:03.317Z,4.10
2022-11-29T02:27:02.950Z,4.30
2022-11-29T02:29:48.991Z,3.77
2022-11-29T02:32:35.395Z,3.70
2022-11-29T02:35:12.004Z,3.57
2022-11-29T02:37:45.109Z,3.50
2022-11-29T02:40:12.398Z,3.23
2022-11-29T02:42:56.480Z,3.33
2022-11-29T02:45:43.466Z,6.20
2022-11-29T02:48:34.379Z,3.50
2022-11-29T02:51:14.813Z,3.10
2022-11-29T02:53:48.879Z,3.13
2022-11-29T02:56:22.299Z,3.23
2022-11-29T02:59:25.093Z,3.27
2022-11-29T03:02:10.904Z,4.37
2022-11-29T03:04:44.360Z,3.30
2022-11-29T03:07:14.900Z,3.33
2022-11-29T03:09:55.565Z,3.40
2022-11-29T03:12:37.959Z,2.93
2022-11-29T03:15:28.946Z,2.87
2022-11-29T03:17:56.444Z,3.10
2022-11-29T03:20:30.176Z,2.77
2022-11-29T03:23:15.081Z,3.00
2022-11-29T03:26:01.299Z,4.03
2022-11-29T03:28:34.776Z,7.30
2022-11-29T03:31:08.403Z,3.43
2022-11-29T03:33:45.831Z,3.57
2022-11-29T03:36:13.163Z,3.50
2022-11-29T03:38:40.530Z,3.27
2022-11-29T03:41:11.039Z,3.03
2022-11-29T03:43:57.128Z,3.00
2022-11-29T03:46:43.228Z,2.97
2022-11-29T03:49:19.864Z,3.50
2022-11-29T03:51:53.223Z,2.87
2022-11-29T03:54:26.623Z,3.33
2022-11-29T03:56:54.124Z,3.10
2022-11-29T03:59:24.885Z,3.23
2022-11-29T04:02:11.111Z,3.50
2022-11-29T04:04:57.220Z,3.40
2022-11-29T04:07:46.029Z,3.13
2022-11-29T04:10:39.241Z,7.90
2022-11-29T04:13:18.908Z,3.27
2022-11-29T04:16:05.685Z,3.17
2022-11-29T04:18:39.669Z,3.10
2022-11-29T04:21:31.739Z,3.00
2022-11-29T04:24:14.227Z,3.27
2022-11-29T04:27:01.112Z,2.87
2022-11-29T04:29:31.517Z,3.00
2022-11-29T04:31:58.860Z,2.90
2022-11-29T04:34:50.054Z,2.77
2022-11-29T04:37:17.307Z,2.93
2022-11-29T04:39:47.300Z,3.20
2022-11-29T04:42:14.591Z,3.53
2022-11-29T04:44:48.104Z,2.90
2022-11-29T04:47:15.487Z,2.90
2022-11-29T04:49:58.269Z,4.57
2022-11-29T04:52:37.919Z,3.90
2022-11-29T04:55:05.455Z,3.43
2022-11-29T04:57:48.863Z,3.00
2022-11-29T05:00:23.855Z,3.73
2022-11-29T05:02:59.965Z,3.73
2022-11-29T05:05:30.682Z,3.10
2022-11-29T05:08:24.321Z,4.00
2022-11-29T05:11:06.927Z,3.57
2022-11-29T05:13:43.407Z,4.07
2022-11-29T05:16:37.295Z,9.53
2022-11-29T05:19:25.183Z,4.07
2022-11-29T05:22:11.283Z,3.47
2022-11-29T05:24:54.359Z,4.63
2022-11-29T05:27:40.456Z,3.93
2022-11-29T05:30:18.184Z,3.30
2022-11-29T05:33:05.813Z,2.97
2022-11-29T05:35:52.266Z,2.70
2022-11-29T05:38:22.772Z,2.93
2022-11-29T05:40:53.130Z,2.87
2022-11-29T05:43:26.404Z,2.77
2022-11-29T05:45:58.712Z,3.97
2022-11-29T05:48:51.963Z,20.37
2022-11-29T05:51:36.296Z,4.30
2022-11-29T05:54:27.442Z,3.17
2022-11-29T05:57:10.299Z,3.77
2022-11-29T05:59:39.121Z,2.90
2022-11-29T06:02:19.056Z,12.87
2022-11-29T06:04:58.850Z,5.27
2022-11-29T06:07:42.347Z,3.20
2022-11-29T06:10:15.181Z,2.97
2022-11-29T06:12:43.423Z,2.80
2022-11-29T06:15:29.724Z,2.87
2022-11-29T06:18:09.410Z,2.87
2022-11-29T06:20:55.368Z,3.03
2022-11-29T06:23:25.986Z,3.30
2022-11-29T06:26:03.505Z,4.67
2022-11-29T06:28:38.565Z,2.80
2022-11-29T06:31:06.306Z,2.90
2022-11-29T06:33:39.393Z,3.53
2022-11-29T06:36:10.956Z,3.43
2022-11-29T06:38:38.789Z,3.30
2022-11-29T06:41:06.394Z,3.57
2022-11-29T06:43:33.905Z,3.47
2022-11-29T06:46:13.642Z,3.20
2022-11-29T06:48:45.815Z,3.00
2022-11-29T06:51:27.503Z,2.90
2022-11-29T06:54:02.942Z,2.73
2022-11-29T06:56:40.660Z,2.97
2022-11-29T06:59:33.026Z,3.07
2022-11-29T07:02:00.517Z,3.47
2022-11-29T07:04:34.786Z,2.80
2022-11-29T07:07:02.186Z,2.77
2022-11-29T07:09:33.016Z,3.03
2022-11-29T07:12:00.462Z,3.13
2022-11-29T07:14:27.900Z,8.20
2022-11-29T07:17:10.371Z,3.00
2022-11-29T07:19:41.792Z,2.50
2022-11-29T07:22:27.823Z,3.17
2022-11-29T07:25:03.701Z,2.47
2022-11-29T07:27:36.168Z,2.57
2022-11-29T07:30:04.039Z,3.00
2022-11-29T07:32:52.061Z,2.77
2022-11-29T07:35:30.410Z,9.93
2022-11-29T07:37:57.908Z,4.40
2022-11-29T07:40:35.962Z,2.60
2022-11-29T07:43:04.928Z,4.43
2022-11-29T07:45:33.581Z,3.50
2022-11-29T07:48:00.895Z,3.20
2022-11-29T07:50:28.608Z,3.60
2022-11-29T07:52:56.976Z,4.20
2022-11-29T07:55:26.127Z,2.40
2022-11-29T07:57:53.890Z,2.50
2022-11-29T08:00:21.613Z,3.20
2022-11-29T08:02:49.661Z,3.33
2022-11-29T08:05:17.156Z,2.73
2022-11-29T08:07:44.833Z,3.43
2022-11-29T08:10:13.749Z,3.23
2022-11-29T08:12:45.491Z,3.50
2022-11-29T08:15:13.036Z,3.20
2022-11-29T08:17:40.794Z,3.03
2022-11-29T08:20:09.617Z,3.30
2022-11-29T08:22:37.069Z,6.33
2022-11-29T08:25:05.090Z,2.60
2022-11-29T08:27:32.698Z,2.53
2022-11-29T08:30:00.072Z,3.00
2022-11-29T08:32:28.041Z,2.30
2022-11-29T08:34:55.440Z,2.03
2022-11-29T08:37:23.274Z,3.67
2022-11-29T08:39:51.867Z,2.63
2022-11-29T08:42:19.169Z,7.10
2022-11-29T08:44:48.219Z,3.10
2022-11-29T08:47:34.127Z,3.30
2022-11-29T08:50:01.487Z,3.20
2022-11-29T08:52:48.754Z,3.13
2022-11-29T08:55:16.501Z,3.13
2022-11-29T08:57:43.933Z,2.50
2022-11-29T09:00:11.599Z,2.10
2022-11-29T09:02:39.001Z,2.30
2022-11-29T09:05:07.263Z,2.10
2022-11-29T09:07:40.944Z,2.03
2022-11-29T09:10:09.010Z,1.87
2022-11-29T09:12:37.177Z,2.00
2022-11-29T09:15:06.511Z,2.10
2022-11-29T09:17:33.778Z,2.10
2022-11-29T09:20:01.149Z,2.67
2022-11-29T09:22:28.419Z,2.30
2022-11-29T09:24:56.037Z,2.83
2022-11-29T09:27:23.545Z,6.00
2022-11-29T09:29:50.841Z,2.00
2022-11-29T09:32:18.111Z,3.13
2022-11-29T09:34:46.227Z,3.20
2022-11-29T09:37:14.090Z,1.70
2022-11-29T09:39:42.378Z,2.00
2022-11-29T09:42:36.207Z,1.50
2022-11-29T09:45:03.604Z,1.80
2022-11-29T09:47:37.154Z,2.83
2022-11-29T09:50:13.763Z,1.83
2022-11-29T09:52:50.585Z,2.60
2022-11-29T09:55:31.610Z,3.90
2022-11-29T09:58:01.184Z,1.60
2022-11-29T10:00:29.625Z,2.00
2022-11-29T10:03:10.757Z,2.03
2022-11-29T10:05:47.541Z,3.20
2022-11-29T10:08:16.090Z,2.23
2022-11-29T10:10:45.801Z,2.40
2022-11-29T10:13:16.363Z,1.83
2022-11-29T10:15:47.915Z,2.27
2022-11-29T10:18:35.496Z,2.57
2022-11-29T10:21:10.264Z,4.03
2022-11-29T10:23:39.801Z,2.90
2022-11-29T10:26:08.370Z,4.40
2022-11-29T10:28:37.228Z,4.77
2022-11-29T10:31:44.094Z,6.77
2022-11-29T10:34:15.674Z,3.20
2022-11-29T10:36:47.482Z,4.20
2022-11-29T10:39:17.619Z,4.30
2022-11-29T10:41:45.007Z,6.07
2022-11-29T10:44:14.170Z,7.77
2022-11-29T10:46:41.558Z,4.80
2022-11-29T10:49:12.950Z,3.43
2022-11-29T10:51:40.166Z,3.47
2022-11-29T10:54:27.879Z,3.43
2022-11-29T10:56:56.686Z,3.27
2022-11-29T10:59:28.300Z,4.13
2022-11-29T11:01:56.398Z,4.20
2022-11-29T11:04:25.141Z,4.73
2022-11-29T11:06:56.311Z,7.40
2022-11-29T11:09:28.899Z,6.50
2022-11-29T11:11:57.838Z,6.87
2022-11-29T11:14:37.625Z,7.50
2022-11-29T11:17:26.680Z,6.73
2022-11-29T11:20:01.495Z,6.57
2022-11-29T11:22:29.554Z,6.07
2022-11-29T11:24:59.287Z,5.27
2022-11-29T11:27:35.283Z,4.43
2022-11-29T11:30:06.805Z,4.60
2022-11-29T11:32:34.054Z,3.53
2022-11-29T11:35:02.894Z,3.80
2022-11-29T11:37:31.395Z,3.53
2022-11-29T11:40:00.330Z,4.77
2022-11-29T11:42:38.436Z,3.60
2022-11-29T11:45:13.077Z,2.67
2022-11-29T11:47:44.880Z,2.97
2022-11-29T11:50:16.697Z,5.90
2022-11-29T11:52:54.277Z,2.20
2022-11-29T11:55:32.071Z,2.10
2022-11-29T11:58:03.369Z,2.23
2022-11-29T12:03:42.162Z,2.93
2022-11-29T12:06:09.595Z,4.27
2022-11-29T12:08:37.550Z,6.13
2022-11-29T12:11:09.947Z,8.03
2022-11-29T12:13:42.079Z,4.40
2022-11-29T12:16:12.273Z,3.87
2022-11-29T12:18:50.035Z,4.30
2022-11-29T12:21:19.102Z,4.57
2022-11-29T12:23:59.617Z,3.83
2022-11-29T12:29:19.708Z,3.30
2022-11-29T12:32:16.424Z,2.40
2022-11-29T12:34:51.044Z,3.30
2022-11-29T12:37:21.596Z,4.40
2022-11-29T12:39:50.850Z,3.10
2022-11-29T12:42:38.482Z,2.20
2022-11-29T12:45:27.266Z,3.03
2022-11-29T12:48:07.385Z,2.73
2022-11-29T12:50:41.104Z,2.70
2022-11-29T12:53:20.101Z,2.80
2022-11-29T12:56:11.339Z,3.00
2022-11-29T12:58:45.890Z,2.43
2022-11-29T13:01:15.250Z,2.77
2022-11-29T13:03:42.886Z,2.87
2022-11-29T13:06:10.213Z,3.00
2022-11-29T13:08:49.936Z,2.90
2022-11-29T13:11:22.799Z,4.63
2022-11-29T13:13:50.354Z,3.33
2022-11-29T13:16:25.107Z,3.80
2022-11-29T13:19:03.713Z,3.70
2022-11-29T13:21:31.544Z,3.10
2022-11-29T13:24:11.809Z,3.27
2022-11-29T13:26:42.760Z,3.57
2022-11-29T13:29:15.432Z,2.93
2022-11-29T13:31:43.129Z,3.00
2022-11-29T13:34:14.845Z,3.10
2022-11-29T13:36:51.219Z,2.80
2022-11-29T13:39:24.528Z,2.33
2022-11-29T13:41:57.593Z,2.50
2022-11-29T13:44:37.404Z,2.67
2022-11-29T13:47:04.644Z,2.33
2022-11-29T13:49:50.906Z,3.03
2022-11-29T13:52:30.151Z,6.30
2022-11-29T13:55:10.196Z,4.50
2022-11-29T14:00:44.149Z,4.50
2022-11-29T14:03:17.755Z,5.47
2022-11-29T14:05:45.609Z,4.97
2022-11-29T14:08:54.526Z,5.30
2022-11-29T14:11:23.691Z,5.40
2022-11-29T14:14:09.920Z,6.03
2022-11-29T14:16:40.060Z,6.10
2022-11-29T14:19:10.414Z,6.07
2022-11-29T14:21:56.582Z,6.63
2022-11-29T14:24:32.990Z,6.13
2022-11-29T14:27:10.353Z,6.60
2022-11-29T14:29:54.286Z,5.93
2022-11-29T14:32:50.327Z,5.63
2022-11-29T14:35:22.585Z,5.70
2022-11-29T14:38:10.303Z,5.10
2022-11-29T14:40:41.737Z,5.13
2022-11-29T14:43:17.434Z,4.17
2022-11-29T14:45:44.960Z,4.57
2022-11-29T14:48:29.090Z,4.63
2022-11-29T14:51:28.847Z,5.27
2022-11-29T14:54:13.733Z,4.37
2022-11-29T14:56:45.520Z,5.50
2022-11-29T14:59:45.874Z,16.10
2022-11-29T15:02:22.560Z,8.83
2022-11-29T15:04:51.899Z,9.60
2022-11-29T15:07:21.044Z,9.60
2022-11-29T15:09:50.208Z,6.60
2022-11-29T15:12:28.828Z,7.03
2022-11-29T15:15:08.407Z,7.90
2022-11-29T15:17:54.549Z,7.70
2022-11-29T15:20:40.666Z,5.73
2022-11-29T15:23:11.992Z,9.33
2022-11-29T15:25:46.761Z,8.83
2022-11-29T15:28:20.526Z,7.53
2022-11-29T15:30:48.128Z,9.27
2022-11-29T15:33:26.661Z,7.93
2022-11-29T15:36:04.347Z,11.60
2022-11-29T15:38:41.899Z,10.33
2022-11-29T15:41:28.543Z,12.70
2022-11-29T15:44:03.085Z,6.30
2022-11-29T15:46:31.780Z,6.77
2022-11-29T15:49:18.585Z,6.80
2022-11-29T15:51:49.026Z,7.30
2022-11-29T15:54:27.483Z,9.20
2022-11-29T15:56:56.652Z,8.87
2022-11-29T15:59:24.970Z,7.83
2022-11-29T16:01:53.412Z,5.73
2022-11-29T16:04:22.179Z,7.10
2022-11-29T16:06:49.977Z,8.60
2022-11-29T16:09:18.417Z,6.67
2022-11-29T16:11:46.724Z,5.23
2022-11-29T16:14:16.942Z,5.83
2022-11-29T16:16:46.446Z,5.13
2022-11-29T16:19:29.124Z,5.13
2022-11-29T16:22:30.870Z,4.30
2022-11-29T16:24:58.207Z,4.73
2022-11-29T16:27:25.673Z,4.50
2022-11-29T16:29:57.126Z,4.43
2022-11-29T16:32:27.488Z,5.17
2022-11-29T16:34:55.470Z,5.27
2022-11-29T16:37:24.361Z,6.37
2022-11-29T16:39:53.783Z,4.63
2022-11-29T16:42:26.070Z,4.90
2022-11-29T16:45:02.604Z,5.60
2022-11-29T16:47:31.075Z,5.90
2022-11-29T16:50:15.418Z,6.13
2022-11-29T16:52:42.690Z,6.30
2022-11-29T16:55:09.999Z,6.70
2022-11-29T16:57:37.418Z,5.83
2022-11-29T17:00:31.646Z,6.40
2022-11-29T17:02:59.748Z,7.17
2022-11-29T17:05:27.322Z,6.93
2022-11-29T17:07:54.948Z,6.10
2022-11-29T17:10:24.070Z,6.00
2022-11-29T17:12:51.722Z,5.57
2022-11-29T17:15:19.236Z,6.23
2022-11-29T17:17:46.554Z,5.93
2022-11-29T17:20:14.310Z,6.77
2022-11-29T17:22:42.206Z,7.13
2022-11-29T17:25:10.475Z,6.10
2022-11-29T17:27:37.991Z,5.83
2022-11-29T17:30:06.985Z,5.80
2022-11-29T17:32:35.857Z,4.70
2022-11-29T17:35:03.304Z,4.63
2022-11-29T17:37:30.987Z,6.17
2022-11-29T17:39:58.445Z,6.03
2022-11-29T17:42:25.860Z,5.50
2022-11-29T17:44:53.167Z,6.13
2022-11-29T17:47:20.909Z,5.77
2022-11-29T17:49:48.625Z,5.70
2022-11-29T17:52:16.175Z,6.60
2022-11-29T17:54:44.205Z,6.47
2022-11-29T17:57:11.710Z,6.43
2022-11-29T17:59:38.978Z,6.23
2022-11-29T18:02:06.374Z,6.23
2022-11-29T18:04:33.773Z,6.40
2022-11-29T18:07:01.697Z,5.90
2022-11-29T18:09:28.971Z,5.97
2022-11-29T18:11:56.244Z,5.60
2022-11-29T18:14:25.344Z,6.97
2022-11-29T18:16:52.894Z,7.17
2022-11-29T18:19:21.285Z,18.27
2022-11-29T18:21:49.119Z,17.17
2022-11-29T18:24:16.535Z,19.27
2022-11-29T18:26:43.873Z,22.20
2022-11-29T18:29:11.301Z,21.33
2022-11-29T18:31:40.086Z,13.33
2022-11-29T18:34:09.754Z,9.50
2022-11-29T18:36:38.823Z,8.60
2022-11-29T18:39:08.882Z,13.50
2022-11-29T18:41:36.419Z,8.70
2022-11-29T18:44:08.402Z,8.83
2022-11-29T18:46:37.378Z,8.40
2022-11-29T18:49:06.721Z,13.77
2022-11-29T18:51:34.562Z,12.77
2022-11-29T18:54:02.078Z,13.93
2022-11-29T18:56:31.248Z,8.43
2022-11-29T18:58:59.697Z,8.60
2022-11-29T19:01:28.616Z,10.07
2022-11-29T19:03:57.891Z,11.13
2022-11-29T19:06:32.959Z,14.10
2022-11-29T19:09:06.926Z,9.40
2022-11-29T19:11:34.601Z,7.63
2022-11-29T19:14:03.971Z,9.23
2022-11-29T19:16:32.223Z,8.63
2022-11-29T19:19:00.043Z,8.17
2022-11-29T19:21:28.210Z,8.17
2022-11-29T19:23:56.884Z,9.23
2022-11-29T19:26:25.291Z,9.17
2022-11-29T19:28:53.343Z,7.83
2022-11-29T19:31:24.189Z,8.67
2022-11-29T19:33:52.887Z,14.13
2022-11-29T19:36:27.697Z,31.07
2022-11-29T19:38:55.105Z,15.03
2022-11-29T19:41:35.580Z,37.20
2022-11-29T19:44:04.475Z,10.40
2022-11-29T19:46:33.336Z,8.20
2022-11-29T19:49:02.013Z,8.57
2022-11-29T19:51:29.826Z,15.40
2022-11-29T19:53:59.932Z,23.00
2022-11-29T19:56:27.967Z,11.10
2022-11-29T19:58:55.545Z,15.87
2022-11-29T20:01:25.055Z,11.50
2022-11-29T20:03:53.639Z,9.33
2022-11-29T20:06:20.913Z,9.27
2022-11-29T20:08:48.547Z,9.23
2022-11-29T20:11:20.391Z,8.53
2022-11-29T20:13:48.999Z,9.53
2022-11-29T20:16:18.580Z,9.50
2022-11-29T20:18:50.884Z,10.67
2022-11-29T20:21:23.072Z,10.00
2022-11-29T20:23:50.640Z,11.80
2022-11-29T20:26:18.919Z,12.43
2022-11-29T20:28:49.127Z,11.47
2022-11-29T20:31:18.847Z,10.97
2022-11-29T20:33:47.064Z,11.17
2022-11-29T20:36:19.867Z,13.87
2022-11-29T20:38:47.075Z,13.37
2022-11-29T20:41:35.521Z,9.90
2022-11-29T20:44:04.594Z,9.90
2022-11-29T20:46:32.061Z,11.83
2022-11-29T20:49:05.999Z,10.17
2022-11-29T20:51:56.241Z,10.20
2022-11-29T20:54:23.898Z,10.23
2022-11-29T20:56:51.406Z,11.13
2022-11-29T20:59:18.846Z,10.57
2022-11-29T21:01:46.430Z,10.17
2022-11-29T21:04:14.556Z,11.93
2022-11-29T21:06:44.306Z,12.40
2022-11-29T21:09:11.767Z,12.93
2022-11-29T21:11:39.142Z,12.93
2022-11-29T21:14:09.143Z,13.97
2022-11-29T21:16:36.535Z,14.40
2022-11-29T21:19:04.322Z,12.40
2022-11-29T21:21:31.786Z,11.57
2022-11-29T21:24:05.735Z,11.93
2022-11-29T21:26:42.013Z,11.87
2022-11-29T21:29:14.008Z,12.77
2022-11-29T21:31:42.249Z,12.13
2022-11-29T21:34:10.429Z,12.50
2022-11-29T21:36:38.190Z,12.27
2022-11-29T21:39:06.867Z,12.07
2022-11-29T21:41:34.659Z,12.73
2022-11-29T21:44:07.171Z,12.27
2022-11-29T21:46:35.175Z,15.57
2022-11-29T21:49:02.734Z,13.43
2022-11-29T21:51:30.082Z,13.90
2022-11-29T21:53:57.404Z,13.07
2022-11-29T21:56:25.815Z,13.37
2022-11-29T21:58:53.131Z,12.47
2022-11-29T22:01:20.984Z,12.97
2022-11-29T22:03:48.672Z,12.30
2022-11-29T22:06:20.757Z,11.60
2022-11-29T22:08:48.863Z,12.10
2022-11-29T22:11:30.894Z,11.93
2022-11-29T22:14:15.273Z,10.87
2022-11-29T22:16:47.239Z,11.70
2022-11-29T22:19:16.287Z,11.63
2022-11-29T22:21:44.744Z,12.63
2022-11-29T22:24:12.774Z,12.27
2022-11-29T22:26:40.126Z,11.60
2022-11-29T22:29:07.625Z,13.17
2022-11-29T22:31:36.317Z,13.83
2022-11-29T22:34:03.756Z,12.57
2022-11-29T22:36:31.085Z,12.27
2022-11-29T22:38:58.363Z,12.13
2022-11-29T22:41:25.811Z,11.10
2022-11-29T22:43:54.244Z,11.03
2022-11-29T22:46:22.593Z,12.57
2022-11-29T22:48:51.842Z,12.63
2022-11-29T22:51:21.246Z,11.20
2022-11-29T22:53:52.938Z,10.70
2022-11-29T22:56:20.585Z,11.13
2022-11-29T22:58:48.362Z,11.77
2022-11-29T23:01:19.786Z,11.77
2022-11-29T23:03:48.711Z,11.20
2022-11-29T23:06:17.181Z,12.43
2022-11-29T23:08:45.040Z,12.00
2022-11-29T23:11:14.119Z,12.60
2022-11-29T23:13:42.854Z,11.33
2022-11-29T23:16:11.489Z,11.93
2022-11-29T23:18:40.856Z,11.43
2022-11-29T23:21:09.484Z,10.33
2022-11-29T23:23:37.003Z,10.43
2022-11-29T23:26:07.351Z,9.57
2022-11-29T23:28:35.198Z,10.37
2022-11-29T23:31:02.786Z,10.10
2022-11-29T23:33:30.162Z,10.17
2022-11-29T23:36:05.098Z,9.00
2022-11-29T23:38:32.395Z,8.47
2022-11-29T23:40:59.750Z,7.97
2022-11-29T23:43:30.919Z,8.00
2022-11-29T23:45:58.381Z,7.80
2022-11-29T23:48:25.845Z,8.23
2022-11-29T23:50:53.207Z,7.07
2022-11-29T23:53:20.726Z,8.23
2022-11-29T23:55:56.277Z,7.83
2022-11-29T23:58:23.552Z,7.63
